ウランバートル の空港の天気 - METARとTAF

チンギスハーン国際空港 ( ZMUB / ULN ) - モンゴル ウランバートル
飛行場実況気象(Metar)
観測時間12/17 08:30 ULAT (12/17 00:30 UTC)
風向・風速不定 1m/s
視程10km以上
天気現象
全天の8割程度の雲 雲底高度 3050m
気温-23℃
湿度76%
気圧1022hPa
METARZMUB 170030Z VRB01MPS 9999 BKN100 M23/M26 Q1022 NOSIG RMK QFE658.5 76 MOP
過去の天気等 Google飛行場航空写真 Wunderground天気予報

過去48時間のMETAR

飛行場予報(TAF)
発表時間: 12/17 06:40 ULAT (12/16 22:40 UTC)
予報対象時間: 17日8時 ULAT ~ 18日14時 ULAT
風向・風速不定 2m/s
視程10km以上
全天の4割程度の雲 雲底高度 1,010m
全天の4割程度の雲 雲底高度 3,050m
17日8時 ULAT ~ 17日18時 ULAT に一時的に
視程6,000m
天気現象弱い雪
全天の4割程度の雲 雲底高度 910m
全天の4割程度の雲 雲底高度 2,440m
17日12時 ULAT ~ 17日14時 ULAT に徐々に
風向・風速北西 5m/s
17日18時 ULAT ~ 17日20時 ULAT に徐々に
風向・風速不定 2m/s
全天の4割程度の雲 雲底高度 3,050m
TAF ZMUB 162240Z 1700/1806 VRB02MPS 9999 SCT033 SCT100 TXM14/1706Z TNM27/1722Z
TEMPO 1700/1710 6000 -SN SCT030 SCT080
BECMG 1704/1706 31005MPS
BECMG 1710/1712 VRB02MPS SCT100